KHPT/HPT METAR and TAF weather

Enter ICAO airport designator
Station Type Date Time Source
KHPT METAR 2019/08/24 17:35 UTC NOAA

KHPT 241735Z AUTO 11011G16KT 10SM CLR 22/14 A3020 RMK AO2


Station Type Date Time Source
KHPT Decoded METAR 2019/08/24 17:35 UTC NOAA

Station name not available
Aug 24, 2019 - 01:35 PM EDT / 2019.08.24 1735 UTC
Wind: from the ESE (110 degrees) at 13 MPH (11 KT) gusting to 18 MPH (16 KT):0
Visibility: 10 mile(s):0
Sky conditions: clear
Temperature: 71 F (22 C)
Dew Point: 57 F (14 C)
Relative Humidity: 60%
Pressure (altimeter): 30.2 in. Hg (1022 hPa)
ob: KHPT 241735Z AUTO 11011G16KT 10SM CLR 22/14 A3020 RMK AO2
cycle: 17

Station Type Date Time Source
KHPT TAF UTC NOAA

Error!

Example: see airport list